首页
METAR-TAF:

METAR-TAF

机场 :

喀山國際機場

喀山, 俄罗斯

纬度: 55-47N, 经度: 049-12E, 海拔: 125米

当前天气观测

该预报发布于30分钟前的09:00 UTC
风速17节,风向西,有时为27节阵风
温度 -1°C
湿度 54%
气压 1002 hPa
能见度10公里或以上
多云层高于3000英尺, 积雨云.
小阵雪

METAR: UWKD 010900Z 28009G14MPS 9999 -SHSN BKN030CB M01/M09 Q1002 R29/220055 NOSIG RMK QFE741/0988

时间: 12:30 (09:30 UTC)

预报

该预报发布于1小时和30分钟前的08:00 UTC
预报有效从01日的 09点(UTC)到 02日的 09点(UTC)
风速16节,风向西,有时为29节阵风
能见度10公里或以上
多云层高于1600英尺
短暂存在
从 01日的 09点(UTC)到 01日的 12点(UTC)
多云层高于1100英尺, 积雨云.
小阵雪, 雨
成为
从 01日的 12点(UTC)到 01日的 14点(UTC)
风速10节,风向西,有时为23节阵风
成为
从 01日的 18点(UTC)到 01日的 20点(UTC)
风速10节,风向西南,有时为23节阵风

TAF: UWKD 010800Z 0109/0209 28008G15MPS 9999 BKN016 TX01/0112Z TNM03/0201Z TEMPO 0109/0112 -SHSNRA BKN011CB BECMG 0112/0114 26005G12MPS BECMG 0118/0120 23005G12MPS

超过4000个机场的气象观测和天气预报(METAR&TAF报告)。

可查询的气象台以黄色和红色小点在地图上表示。

将鼠标移到小点上方,可查看气象台名称。

然后点击查看天气观测和预报。

如需切换地图:点击带黑十字的绿色按钮放大地图;点击带横线的绿色按钮缩小地图;或者点击绿色箭头查看邻近地区的地图。


METAR-TAF: